Cherry Creek, Nevada
Current Conditions -  °F | °C
As of 4:53 AM on Friday 24 Oct 2014 (Local Time) from KELY Reporting Station
Clear Clear  
Wind Chill: 50°   Ceiling: Unl
Heat Index: 50°   Visibility: 10mi
Dew Point: 26°   Wind: 16mph
Humidity: 39%   Direction: 190°S
Pressure: 30.22"   Gusts: NA
Location:  39.5572°N, 115.033°W
Report Text: KELY 241153Z AUTO 19014KT 10SM CLR 10/M03 A3022 RMK AO2 SLP160 T01001033 10122 20094 56000
Loading
Personal Weather Stations






























Interactive Weather Map
Tropical Storm Tracking
New forecast layout! Learn more

10-Day Weather Forecast

Advertisements
Track Severe Weather on mobile